LESA/SLM METAR and TAF weather

Enter ICAO airport designator
Station Type Date Time Source
LESA METAR 2021/10/20 06:00 UTC NOAA

LESA 200600Z 18004KT CAVOK 10/09 Q1023


Station Type Date Time Source
LESA Decoded METAR 2021/10/20 06:00 UTC NOAA

Salamanca / Matacan, Spain (LESA) 40-57N 005-30W 795M
Oct 20, 2021 - 02:00 AM EDT / 2021.10.20 0600 UTC
Wind: from the S (180 degrees) at 5 MPH (4 KT):0
Visibility: greater than 7 mile(s):0
Temperature: 50 F (10 C)
Dew Point: 48 F (9 C)
Relative Humidity: 93%
Pressure (altimeter): 30.21 in. Hg (1023 hPa)
ob: LESA 200600Z 18004KT CAVOK 10/09 Q1023
cycle: 6

Station Type Date Time Source
LESA TAF 2021/10/20 03:27 UTC NOAA

TAF LESA 200200Z 2003/2103 24008KT CAVOK TX24/2015Z TN09/2006Z PROB40
TEMPO 2011/2018 24018G30KT
BECMG 2018/2019 27005KT PROB40
TEMPO 2101/2103 1500 BCFG BKN006

Example: see airport list